sensor_id;sensor_type;location;lat;lon;timestamp;P1;durP1;ratioP1;P2;durP2;ratioP2
48588;SDS011;34369;51.174;6.738;2023-05-24T00:01:41;33.03;;;30.33;;
48588;SDS011;34369;51.174;6.738;2023-05-24T00:04:13;32.33;;;30.03;;
48588;SDS011;34369;51.174;6.738;2023-05-24T00:06:50;34.50;;;32.20;;
48588;SDS011;34369;51.174;6.738;2023-05-24T00:09:23;34.10;;;31.60;;
48588;SDS011;34369;51.174;6.738;2023-05-24T00:11:55;32.30;;;29.87;;
48588;SDS011;34369;51.174;6.738;2023-05-24T00:14:28;33.90;;;31.50;;
48588;SDS011;34369;51.174;6.738;2023-05-24T00:17:00;33.20;;;30.63;;
48588;SDS011;34369;51.174;6.738;2023-05-24T00:19:33;34.67;;;32.17;;
48588;SDS011;34369;51.174;6.738;2023-05-24T00:22:08;33.47;;;30.53;;
48588;SDS011;34369;51.174;6.738;2023-05-24T00:24:40;33.47;;;30.90;;
48588;SDS011;34369;51.174;6.738;2023-05-24T00:27:14;31.97;;;29.63;;
48588;SDS011;34369;51.174;6.738;2023-05-24T00:29:46;33.57;;;30.97;;
48588;SDS011;34369;51.174;6.738;2023-05-24T00:32:18;32.73;;;30.33;;
48588;SDS011;34369;51.174;6.738;2023-05-24T00:34:51;31.70;;;29.47;;
48588;SDS011;34369;51.174;6.738;2023-05-24T00:37:25;31.50;;;29.17;;
48588;SDS011;34369;51.174;6.738;2023-05-24T00:39:58;33.43;;;30.90;;
48588;SDS011;34369;51.174;6.738;2023-05-24T00:42:30;32.60;;;30.10;;
48588;SDS011;34369;51.174;6.738;2023-05-24T00:45:03;35.50;;;32.97;;
48588;SDS011;34369;51.174;6.738;2023-05-24T00:47:36;33.63;;;30.90;;
48588;SDS011;34369;51.174;6.738;2023-05-24T00:50:09;32.40;;;29.70;;
48588;SDS011;34369;51.174;6.738;2023-05-24T00:52:44;32.47;;;30.27;;
48588;SDS011;34369;51.174;6.738;2023-05-24T00:55:20;33.90;;;31.30;;
48588;SDS011;34369;51.174;6.738;2023-05-24T00:57:52;33.10;;;30.60;;
48588;SDS011;34369;51.174;6.738;2023-05-24T01:00:25;32.83;;;30.40;;
48588;SDS011;34369;51.174;6.738;2023-05-24T01:03:00;32.30;;;29.90;;
48588;SDS011;34369;51.174;6.738;2023-05-24T01:05:33;33.03;;;30.67;;
48588;SDS011;34369;51.174;6.738;2023-05-24T01:08:11;33.10;;;30.60;;
48588;SDS011;34369;51.174;6.738;2023-05-24T01:10:53;33.57;;;31.07;;
48588;SDS011;34369;51.174;6.738;2023-05-24T01:13:33;33.00;;;30.60;;
48588;SDS011;34369;51.174;6.738;2023-05-24T01:16:19;33.83;;;31.53;;
48588;SDS011;34369;51.174;6.738;2023-05-24T01:18:56;32.97;;;30.67;;
48588;SDS011;34369;51.174;6.738;2023-05-24T01:21:41;33.23;;;30.97;;
48588;SDS011;34369;51.174;6.738;2023-05-24T01:24:36;33.42;;;31.02;;
48588;SDS011;34369;51.174;6.738;2023-05-24T01:27:25;33.07;;;30.57;;
48588;SDS011;34369;51.174;6.738;2023-05-24T01:29:58;32.83;;;30.50;;
48588;SDS011;34369;51.174;6.738;2023-05-24T01:32:33;33.43;;;30.73;;
48588;SDS011;34369;51.174;6.738;2023-05-24T01:35:08;33.20;;;30.80;;
48588;SDS011;34369;51.174;6.738;2023-05-24T01:37:40;34.10;;;31.27;;
48588;SDS011;34369;51.174;6.738;2023-05-24T01:40:13;34.00;;;31.50;;
48588;SDS011;34369;51.174;6.738;2023-05-24T01:42:48;33.73;;;31.13;;
48588;SDS011;34369;51.174;6.738;2023-05-24T01:45:34;37.03;;;34.43;;
48588;SDS011;34369;51.174;6.738;2023-05-24T01:48:13;32.90;;;30.77;;
48588;SDS011;34369;51.174;6.738;2023-05-24T01:50:56;33.10;;;30.70;;
48588;SDS011;34369;51.174;6.738;2023-05-24T01:53:30;33.63;;;31.17;;
48588;SDS011;34369;51.174;6.738;2023-05-24T01:56:05;37.43;;;34.53;;
48588;SDS011;34369;51.174;6.738;2023-05-24T01:58:42;35.25;;;32.58;;
48588;SDS011;34369;51.174;6.738;2023-05-24T02:01:16;35.30;;;32.70;;
48588;SDS011;34369;51.174;6.738;2023-05-24T02:03:48;36.33;;;33.77;;
48588;SDS011;34369;51.174;6.738;2023-05-24T02:06:20;34.03;;;31.63;;
48588;SDS011;34369;51.174;6.738;2023-05-24T02:08:52;34.23;;;31.87;;
48588;SDS011;34369;51.174;6.738;2023-05-24T02:11:24;36.10;;;33.53;;
48588;SDS011;34369;51.174;6.738;2023-05-24T02:13:58;35.07;;;32.47;;
48588;SDS011;34369;51.174;6.738;2023-05-24T02:16:30;35.83;;;33.37;;
48588;SDS011;34369;51.174;6.738;2023-05-24T02:19:02;36.90;;;34.13;;
48588;SDS011;34369;51.174;6.738;2023-05-24T02:21:40;35.73;;;33.17;;
48588;SDS011;34369;51.174;6.738;2023-05-24T02:24:12;35.47;;;32.87;;
48588;SDS011;34369;51.174;6.738;2023-05-24T02:26:44;34.00;;;31.73;;
48588;SDS011;34369;51.174;6.738;2023-05-24T02:29:17;36.10;;;33.67;;
48588;SDS011;34369;51.174;6.738;2023-05-24T02:31:50;35.97;;;33.40;;
48588;SDS011;34369;51.174;6.738;2023-05-24T02:34:25;32.73;;;30.43;;
48588;SDS011;34369;51.174;6.738;2023-05-24T02:36:57;33.93;;;31.53;;
48588;SDS011;34369;51.174;6.738;2023-05-24T02:39:29;35.00;;;32.50;;
48588;SDS011;34369;51.174;6.738;2023-05-24T02:42:02;33.13;;;30.87;;
48588;SDS011;34369;51.174;6.738;2023-05-24T02:44:36;37.50;;;34.17;;
48588;SDS011;34369;51.174;6.738;2023-05-24T02:47:11;35.93;;;33.03;;
48588;SDS011;34369;51.174;6.738;2023-05-24T02:49:44;35.10;;;32.40;;
48588;SDS011;34369;51.174;6.738;2023-05-24T02:52:16;36.10;;;33.30;;
48588;SDS011;34369;51.174;6.738;2023-05-24T02:54:50;35.80;;;33.20;;
48588;SDS011;34369;51.174;6.738;2023-05-24T02:57:23;34.43;;;31.73;;
48588;SDS011;34369;51.174;6.738;2023-05-24T02:59:57;35.93;;;33.23;;
48588;SDS011;34369;51.174;6.738;2023-05-24T03:02:29;35.40;;;32.80;;
48588;SDS011;34369;51.174;6.738;2023-05-24T03:05:03;35.40;;;32.93;;
48588;SDS011;34369;51.174;6.738;2023-05-24T03:07:36;35.03;;;32.63;;
48588;SDS011;34369;51.174;6.738;2023-05-24T03:10:09;36.20;;;33.70;;
48588;SDS011;34369;51.174;6.738;2023-05-24T03:12:41;35.70;;;33.40;;
48588;SDS011;34369;51.174;6.738;2023-05-24T03:15:15;36.33;;;33.53;;
48588;SDS011;34369;51.174;6.738;2023-05-24T03:17:49;36.23;;;33.77;;
48588;SDS011;34369;51.174;6.738;2023-05-24T03:20:21;36.40;;;33.83;;
48588;SDS011;34369;51.174;6.738;2023-05-24T03:22:54;36.73;;;33.87;;
48588;SDS011;34369;51.174;6.738;2023-05-24T03:25:27;34.23;;;31.83;;
48588;SDS011;34369;51.174;6.738;2023-05-24T03:28:00;37.13;;;34.63;;
48588;SDS011;34369;51.174;6.738;2023-05-24T03:30:34;35.17;;;32.53;;
48588;SDS011;34369;51.174;6.738;2023-05-24T03:33:06;35.37;;;33.07;;
48588;SDS011;34369;51.174;6.738;2023-05-24T03:35:43;36.47;;;33.87;;
48588;SDS011;34369;51.174;6.738;2023-05-24T03:38:16;38.47;;;35.87;;
48588;SDS011;34369;51.174;6.738;2023-05-24T03:40:48;37.47;;;34.87;;
48588;SDS011;34369;51.174;6.738;2023-05-24T03:43:23;35.03;;;32.63;;
48588;SDS011;34369;51.174;6.738;2023-05-24T03:45:59;35.57;;;33.03;;
48588;SDS011;34369;51.174;6.738;2023-05-24T03:48:32;36.88;;;34.33;;
48588;SDS011;34369;51.174;6.738;2023-05-24T03:51:04;37.63;;;35.17;;
48588;SDS011;34369;51.174;6.738;2023-05-24T03:53:39;36.93;;;34.53;;
48588;SDS011;34369;51.174;6.738;2023-05-24T03:56:12;35.73;;;33.33;;
48588;SDS011;34369;51.174;6.738;2023-05-24T03:58:45;35.73;;;33.33;;
48588;SDS011;34369;51.174;6.738;2023-05-24T04:01:18;36.37;;;33.70;;
48588;SDS011;34369;51.174;6.738;2023-05-24T04:03:51;36.20;;;33.80;;
48588;SDS011;34369;51.174;6.738;2023-05-24T04:06:25;36.93;;;34.23;;
48588;SDS011;34369;51.174;6.738;2023-05-24T04:08:59;36.30;;;33.57;;
48588;SDS011;34369;51.174;6.738;2023-05-24T04:11:34;36.63;;;34.13;;
48588;SDS011;34369;51.174;6.738;2023-05-24T04:14:10;37.17;;;34.60;;
48588;SDS011;34369;51.174;6.738;2023-05-24T04:16:45;35.77;;;33.30;;
48588;SDS011;34369;51.174;6.738;2023-05-24T04:19:18;36.07;;;33.47;;
48588;SDS011;34369;51.174;6.738;2023-05-24T04:21:52;36.07;;;33.53;;
48588;SDS011;34369;51.174;6.738;2023-05-24T04:24:35;34.97;;;32.70;;
48588;SDS011;34369;51.174;6.738;2023-05-24T04:27:09;36.67;;;34.03;;
48588;SDS011;34369;51.174;6.738;2023-05-24T04:29:43;36.00;;;33.30;;
48588;SDS011;34369;51.174;6.738;2023-05-24T04:32:20;35.70;;;33.30;;
48588;SDS011;34369;51.174;6.738;2023-05-24T04:34:59;36.17;;;33.50;;
48588;SDS011;34369;51.174;6.738;2023-05-24T04:37:53;36.90;;;34.40;;
48588;SDS011;34369;51.174;6.738;2023-05-24T04:40:26;36.20;;;33.77;;
48588;SDS011;34369;51.174;6.738;2023-05-24T04:42:58;36.57;;;33.80;;
48588;SDS011;34369;51.174;6.738;2023-05-24T04:45:31;35.67;;;33.13;;
48588;SDS011;34369;51.174;6.738;2023-05-24T04:48:05;37.13;;;34.63;;
48588;SDS011;34369;51.174;6.738;2023-05-24T04:50:40;34.93;;;32.50;;
48588;SDS011;34369;51.174;6.738;2023-05-24T04:53:14;37.07;;;34.53;;
48588;SDS011;34369;51.174;6.738;2023-05-24T04:55:47;35.17;;;32.37;;
48588;SDS011;34369;51.174;6.738;2023-05-24T04:58:20;36.43;;;33.53;;
48588;SDS011;34369;51.174;6.738;2023-05-24T05:00:52;34.57;;;31.87;;
48588;SDS011;34369;51.174;6.738;2023-05-24T05:03:28;36.83;;;34.10;;
48588;SDS011;34369;51.174;6.738;2023-05-24T05:06:03;36.03;;;33.50;;
48588;SDS011;34369;51.174;6.738;2023-05-24T05:08:36;37.80;;;34.53;;
48588;SDS011;34369;51.174;6.738;2023-05-24T05:11:12;38.57;;;35.60;;
48588;SDS011;34369;51.174;6.738;2023-05-24T05:13:57;37.57;;;35.03;;
48588;SDS011;34369;51.174;6.738;2023-05-24T05:16:29;36.90;;;34.20;;
48588;SDS011;34369;51.174;6.738;2023-05-24T05:19:03;33.87;;;31.20;;
48588;SDS011;34369;51.174;6.738;2023-05-24T05:21:41;35.70;;;32.90;;
48588;SDS011;34369;51.174;6.738;2023-05-24T05:24:13;37.80;;;35.00;;
48588;SDS011;34369;51.174;6.738;2023-05-24T05:26:46;36.10;;;33.40;;
48588;SDS011;34369;51.174;6.738;2023-05-24T05:29:18;36.43;;;33.50;;
48588;SDS011;34369;51.174;6.738;2023-05-24T05:31:51;36.90;;;33.33;;
48588;SDS011;34369;51.174;6.738;2023-05-24T05:34:27;35.67;;;32.83;;
48588;SDS011;34369;51.174;6.738;2023-05-24T05:37:00;37.33;;;34.23;;
48588;SDS011;34369;51.174;6.738;2023-05-24T05:39:37;35.87;;;32.90;;
48588;SDS011;34369;51.174;6.738;2023-05-24T05:42:10;36.03;;;33.23;;
48588;SDS011;34369;51.174;6.738;2023-05-24T05:44:51;34.73;;;31.37;;
48588;SDS011;34369;51.174;6.738;2023-05-24T05:47:27;38.13;;;33.77;;
48588;SDS011;34369;51.174;6.738;2023-05-24T05:52:57;36.33;;;33.27;;
48588;SDS011;34369;51.174;6.738;2023-05-24T05:55:34;36.40;;;33.47;;
48588;SDS011;34369;51.174;6.738;2023-05-24T05:58:09;35.83;;;32.67;;
48588;SDS011;34369;51.174;6.738;2023-05-24T06:00:43;36.30;;;33.40;;
48588;SDS011;34369;51.174;6.738;2023-05-24T06:03:17;35.20;;;32.37;;
48588;SDS011;34369;51.174;6.738;2023-05-24T06:05:52;34.73;;;31.93;;
48588;SDS011;34369;51.174;6.738;2023-05-24T06:08:28;35.77;;;32.87;;
48588;SDS011;34369;51.174;6.738;2023-05-24T06:11:05;37.07;;;33.97;;
48588;SDS011;34369;51.174;6.738;2023-05-24T06:13:38;38.37;;;35.17;;
48588;SDS011;34369;51.174;6.738;2023-05-24T06:16:13;35.43;;;32.03;;
48588;SDS011;34369;51.174;6.738;2023-05-24T06:18:48;34.70;;;31.80;;
48588;SDS011;34369;51.174;6.738;2023-05-24T06:21:22;34.35;;;31.30;;
48588;SDS011;34369;51.174;6.738;2023-05-24T06:23:58;33.93;;;31.03;;
48588;SDS011;34369;51.174;6.738;2023-05-24T06:26:34;35.80;;;32.63;;
48588;SDS011;34369;51.174;6.738;2023-05-24T06:29:09;35.53;;;32.42;;
48588;SDS011;34369;51.174;6.738;2023-05-24T06:31:43;33.05;;;30.45;;
48588;SDS011;34369;51.174;6.738;2023-05-24T06:34:17;34.90;;;31.95;;
48588;SDS011;34369;51.174;6.738;2023-05-24T06:36:52;34.72;;;31.65;;
48588;SDS011;34369;51.174;6.738;2023-05-24T06:39:30;35.70;;;32.70;;
48588;SDS011;34369;51.174;6.738;2023-05-24T06:42:08;33.50;;;30.80;;
48588;SDS011;34369;51.174;6.738;2023-05-24T06:44:46;33.73;;;30.93;;
48588;SDS011;34369;51.174;6.738;2023-05-24T06:47:21;35.17;;;32.07;;
48588;SDS011;34369;51.174;6.738;2023-05-24T06:49:54;33.58;;;30.88;;
48588;SDS011;34369;51.174;6.738;2023-05-24T06:52:31;33.78;;;30.92;;
48588;SDS011;34369;51.174;6.738;2023-05-24T06:55:06;64.15;;;33.85;;
48588;SDS011;34369;51.174;6.738;2023-05-24T06:57:40;34.28;;;31.42;;
48588;SDS011;34369;51.174;6.738;2023-05-24T07:00:13;34.55;;;31.23;;
48588;SDS011;34369;51.174;6.738;2023-05-24T07:02:50;36.57;;;32.80;;
48588;SDS011;34369;51.174;6.738;2023-05-24T07:05:29;35.30;;;31.63;;
48588;SDS011;34369;51.174;6.738;2023-05-24T07:08:02;34.63;;;30.95;;
48588;SDS011;34369;51.174;6.738;2023-05-24T07:10:40;35.70;;;32.25;;
48588;SDS011;34369;51.174;6.738;2023-05-24T07:13:16;34.45;;;31.20;;
48588;SDS011;34369;51.174;6.738;2023-05-24T07:15:51;36.63;;;32.97;;
48588;SDS011;34369;51.174;6.738;2023-05-24T07:18:24;36.47;;;32.65;;
48588;SDS011;34369;51.174;6.738;2023-05-24T07:20:58;34.40;;;31.05;;
48588;SDS011;34369;51.174;6.738;2023-05-24T07:23:35;36.28;;;32.53;;
48588;SDS011;34369;51.174;6.738;2023-05-24T07:26:11;33.08;;;30.17;;
48588;SDS011;34369;51.174;6.738;2023-05-24T07:28:49;35.50;;;32.30;;
48588;SDS011;34369;51.174;6.738;2023-05-24T07:31:28;33.80;;;30.88;;
48588;SDS011;34369;51.174;6.738;2023-05-24T07:34:04;34.55;;;31.45;;
48588;SDS011;34369;51.174;6.738;2023-05-24T07:36:39;32.53;;;29.63;;
48588;SDS011;34369;51.174;6.738;2023-05-24T07:39:18;32.67;;;29.75;;
48588;SDS011;34369;51.174;6.738;2023-05-24T07:42:04;32.47;;;29.65;;
48588;SDS011;34369;51.174;6.738;2023-05-24T07:44:37;32.90;;;29.75;;
48588;SDS011;34369;51.174;6.738;2023-05-24T07:47:10;33.40;;;30.20;;
48588;SDS011;34369;51.174;6.738;2023-05-24T07:49:43;32.90;;;30.10;;
48588;SDS011;34369;51.174;6.738;2023-05-24T07:52:15;32.90;;;30.10;;
48588;SDS011;34369;51.174;6.738;2023-05-24T07:54:54;33.00;;;30.20;;
48588;SDS011;34369;51.174;6.738;2023-05-24T07:57:30;32.40;;;29.70;;
48588;SDS011;34369;51.174;6.738;2023-05-24T08:00:05;31.15;;;28.60;;
48588;SDS011;34369;51.174;6.738;2023-05-24T08:02:43;31.17;;;28.23;;
48588;SDS011;34369;51.174;6.738;2023-05-24T08:05:17;31.73;;;28.77;;
48588;SDS011;34369;51.174;6.738;2023-05-24T08:07:53;31.33;;;28.30;;
48588;SDS011;34369;51.174;6.738;2023-05-24T08:10:27;31.77;;;29.00;;
48588;SDS011;34369;51.174;6.738;2023-05-24T08:13:04;30.70;;;27.92;;
48588;SDS011;34369;51.174;6.738;2023-05-24T08:15:37;30.90;;;28.08;;
48588;SDS011;34369;51.174;6.738;2023-05-24T08:18:11;30.60;;;27.98;;
48588;SDS011;34369;51.174;6.738;2023-05-24T08:20:47;30.40;;;27.90;;
48588;SDS011;34369;51.174;6.738;2023-05-24T08:23:20;31.50;;;28.75;;
48588;SDS011;34369;51.174;6.738;2023-05-24T08:25:52;30.98;;;28.05;;
48588;SDS011;34369;51.174;6.738;2023-05-24T08:28:26;29.45;;;26.73;;
48588;SDS011;34369;51.174;6.738;2023-05-24T08:31:02;30.05;;;27.33;;
48588;SDS011;34369;51.174;6.738;2023-05-24T08:33:41;29.48;;;26.75;;
48588;SDS011;34369;51.174;6.738;2023-05-24T08:36:14;30.40;;;27.63;;
48588;SDS011;34369;51.174;6.738;2023-05-24T08:38:47;31.05;;;28.23;;
48588;SDS011;34369;51.174;6.738;2023-05-24T08:41:26;30.48;;;27.58;;
48588;SDS011;34369;51.174;6.738;2023-05-24T08:44:04;31.58;;;28.17;;
48588;SDS011;34369;51.174;6.738;2023-05-24T08:46:41;29.50;;;26.75;;
48588;SDS011;34369;51.174;6.738;2023-05-24T08:49:20;30.92;;;28.15;;
48588;SDS011;34369;51.174;6.738;2023-05-24T08:51:54;29.70;;;27.20;;
48588;SDS011;34369;51.174;6.738;2023-05-24T08:54:26;29.23;;;26.65;;
48588;SDS011;34369;51.174;6.738;2023-05-24T08:56:59;29.15;;;26.75;;
48588;SDS011;34369;51.174;6.738;2023-05-24T08:59:34;29.33;;;26.83;;
48588;SDS011;34369;51.174;6.738;2023-05-24T09:02:10;28.33;;;26.02;;
48588;SDS011;34369;51.174;6.738;2023-05-24T09:04:50;27.63;;;25.42;;
48588;SDS011;34369;51.174;6.738;2023-05-24T09:07:26;28.00;;;25.65;;
48588;SDS011;34369;51.174;6.738;2023-05-24T09:10:00;29.77;;;27.08;;
48588;SDS011;34369;51.174;6.738;2023-05-24T09:12:36;29.48;;;26.63;;
48588;SDS011;34369;51.174;6.738;2023-05-24T09:15:14;28.42;;;25.80;;
48588;SDS011;34369;51.174;6.738;2023-05-24T09:17:50;28.23;;;25.83;;
48588;SDS011;34369;51.174;6.738;2023-05-24T09:20:23;28.80;;;26.27;;
48588;SDS011;34369;51.174;6.738;2023-05-24T09:22:57;29.38;;;26.77;;
48588;SDS011;34369;51.174;6.738;2023-05-24T09:28:07;28.00;;;25.85;;
48588;SDS011;34369;51.174;6.738;2023-05-24T09:30:44;29.10;;;26.60;;
48588;SDS011;34369;51.174;6.738;2023-05-24T09:33:30;27.92;;;25.42;;
48588;SDS011;34369;51.174;6.738;2023-05-24T09:36:04;27.00;;;24.60;;
48588;SDS011;34369;51.174;6.738;2023-05-24T09:38:38;26.20;;;23.75;;
48588;SDS011;34369;51.174;6.738;2023-05-24T09:41:12;27.50;;;25.00;;
48588;SDS011;34369;51.174;6.738;2023-05-24T09:43:46;26.85;;;24.45;;
48588;SDS011;34369;51.174;6.738;2023-05-24T09:46:22;25.98;;;23.65;;
48588;SDS011;34369;51.174;6.738;2023-05-24T09:48:56;27.33;;;24.90;;
48588;SDS011;34369;51.174;6.738;2023-05-24T09:51:34;25.45;;;23.25;;
48588;SDS011;34369;51.174;6.738;2023-05-24T09:56:43;29.73;;;26.58;;
48588;SDS011;34369;51.174;6.738;2023-05-24T09:59:19;27.75;;;25.30;;
48588;SDS011;34369;51.174;6.738;2023-05-24T10:01:55;27.80;;;25.35;;
48588;SDS011;34369;51.174;6.738;2023-05-24T10:04:39;27.88;;;25.50;;
48588;SDS011;34369;51.174;6.738;2023-05-24T10:07:31;29.00;;;26.30;;
48588;SDS011;34369;51.174;6.738;2023-05-24T10:10:06;28.63;;;26.10;;
48588;SDS011;34369;51.174;6.738;2023-05-24T10:12:42;28.02;;;25.65;;
48588;SDS011;34369;51.174;6.738;2023-05-24T10:15:15;27.83;;;25.52;;
48588;SDS011;34369;51.174;6.738;2023-05-24T10:17:50;27.58;;;25.25;;
48588;SDS011;34369;51.174;6.738;2023-05-24T10:20:23;27.20;;;25.20;;
48588;SDS011;34369;51.174;6.738;2023-05-24T10:22:58;28.17;;;25.52;;
48588;SDS011;34369;51.174;6.738;2023-05-24T10:25:31;27.17;;;24.73;;
48588;SDS011;34369;51.174;6.738;2023-05-24T10:28:06;27.85;;;25.73;;
48588;SDS011;34369;51.174;6.738;2023-05-24T10:30:49;27.23;;;24.90;;
48588;SDS011;34369;51.174;6.738;2023-05-24T10:33:34;27.00;;;24.90;;
48588;SDS011;34369;51.174;6.738;2023-05-24T10:38:45;27.02;;;24.70;;
48588;SDS011;34369;51.174;6.738;2023-05-24T10:41:18;26.53;;;24.33;;
48588;SDS011;34369;51.174;6.738;2023-05-24T10:43:51;26.65;;;24.45;;
48588;SDS011;34369;51.174;6.738;2023-05-24T10:46:25;26.13;;;23.83;;
48588;SDS011;34369;51.174;6.738;2023-05-24T10:48:59;25.98;;;23.75;;
48588;SDS011;34369;51.174;6.738;2023-05-24T10:51:35;26.38;;;24.08;;
48588;SDS011;34369;51.174;6.738;2023-05-24T10:54:12;25.88;;;23.67;;
48588;SDS011;34369;51.174;6.738;2023-05-24T11:00:24;25.77;;;23.88;;
48588;SDS011;34369;51.174;6.738;2023-05-24T11:03:00;26.25;;;24.02;;
48588;SDS011;34369;51.174;6.738;2023-05-24T11:05:48;26.73;;;24.52;;
48588;SDS011;34369;51.174;6.738;2023-05-24T11:08:24;25.90;;;23.23;;
48588;SDS011;34369;51.174;6.738;2023-05-24T11:11:08;25.83;;;23.67;;
48588;SDS011;34369;51.174;6.738;2023-05-24T11:13:44;25.85;;;23.73;;
48588;SDS011;34369;51.174;6.738;2023-05-24T11:16:31;25.63;;;23.45;;
48588;SDS011;34369;51.174;6.738;2023-05-24T11:19:16;27.02;;;24.73;;
48588;SDS011;34369;51.174;6.738;2023-05-24T11:21:54;24.65;;;22.55;;
48588;SDS011;34369;51.174;6.738;2023-05-24T11:24:31;24.90;;;22.80;;
48588;SDS011;34369;51.174;6.738;2023-05-24T11:27:08;26.38;;;24.27;;
48588;SDS011;34369;51.174;6.738;2023-05-24T11:29:46;25.80;;;23.60;;
48588;SDS011;34369;51.174;6.738;2023-05-24T11:32:21;26.60;;;24.17;;
48588;SDS011;34369;51.174;6.738;2023-05-24T11:34:54;26.02;;;23.92;;
48588;SDS011;34369;51.174;6.738;2023-05-24T11:37:31;26.23;;;24.13;;
48588;SDS011;34369;51.174;6.738;2023-05-24T11:40:08;26.60;;;24.40;;
48588;SDS011;34369;51.174;6.738;2023-05-24T11:42:42;27.45;;;25.05;;
48588;SDS011;34369;51.174;6.738;2023-05-24T11:45:16;27.85;;;24.88;;
48588;SDS011;34369;51.174;6.738;2023-05-24T11:47:49;27.25;;;24.95;;
48588;SDS011;34369;51.174;6.738;2023-05-24T11:50:22;27.90;;;25.30;;
48588;SDS011;34369;51.174;6.738;2023-05-24T11:53:02;26.65;;;24.70;;
48588;SDS011;34369;51.174;6.738;2023-05-24T11:55:36;27.85;;;25.15;;
48588;SDS011;34369;51.174;6.738;2023-05-24T11:58:11;26.77;;;24.67;;
48588;SDS011;34369;51.174;6.738;2023-05-24T12:00:52;27.15;;;24.95;;
48588;SDS011;34369;51.174;6.738;2023-05-24T12:03:25;28.05;;;25.75;;
48588;SDS011;34369;51.174;6.738;2023-05-24T12:05:58;26.42;;;24.27;;
48588;SDS011;34369;51.174;6.738;2023-05-24T12:08:35;27.80;;;25.50;;
48588;SDS011;34369;51.174;6.738;2023-05-24T12:11:08;27.98;;;25.67;;
48588;SDS011;34369;51.174;6.738;2023-05-24T12:13:40;27.95;;;25.42;;
48588;SDS011;34369;51.174;6.738;2023-05-24T12:16:14;28.40;;;25.60;;
48588;SDS011;34369;51.174;6.738;2023-05-24T12:18:50;27.80;;;25.40;;
48588;SDS011;34369;51.174;6.738;2023-05-24T12:21:24;27.77;;;24.90;;
48588;SDS011;34369;51.174;6.738;2023-05-24T12:24:09;26.98;;;24.73;;
48588;SDS011;34369;51.174;6.738;2023-05-24T12:26:43;27.00;;;24.88;;
48588;SDS011;34369;51.174;6.738;2023-05-24T12:29:20;27.50;;;25.38;;
48588;SDS011;34369;51.174;6.738;2023-05-24T12:31:54;27.90;;;25.60;;
48588;SDS011;34369;51.174;6.738;2023-05-24T12:34:27;27.90;;;25.60;;
48588;SDS011;34369;51.174;6.738;2023-05-24T12:37:03;28.35;;;26.05;;
48588;SDS011;34369;51.174;6.738;2023-05-24T12:39:43;26.65;;;24.58;;
48588;SDS011;34369;51.174;6.738;2023-05-24T12:42:18;27.65;;;25.45;;
48588;SDS011;34369;51.174;6.738;2023-05-24T12:44:54;26.48;;;24.27;;
48588;SDS011;34369;51.174;6.738;2023-05-24T12:47:27;27.15;;;24.67;;
48588;SDS011;34369;51.174;6.738;2023-05-24T12:50:01;27.08;;;24.58;;
48588;SDS011;34369;51.174;6.738;2023-05-24T12:52:35;27.00;;;24.77;;
48588;SDS011;34369;51.174;6.738;2023-05-24T12:55:10;26.85;;;24.38;;
48588;SDS011;34369;51.174;6.738;2023-05-24T12:57:45;26.80;;;24.48;;
48588;SDS011;34369;51.174;6.738;2023-05-24T13:00:23;26.17;;;24.00;;
48588;SDS011;34369;51.174;6.738;2023-05-24T13:02:58;26.85;;;24.55;;
48588;SDS011;34369;51.174;6.738;2023-05-24T13:05:32;26.27;;;24.08;;
48588;SDS011;34369;51.174;6.738;2023-05-24T13:08:06;26.48;;;24.08;;
48588;SDS011;34369;51.174;6.738;2023-05-24T13:10:41;26.80;;;24.15;;
48588;SDS011;34369;51.174;6.738;2023-05-24T13:13:14;26.30;;;24.17;;
48588;SDS011;34369;51.174;6.738;2023-05-24T13:15:47;27.42;;;25.15;;
48588;SDS011;34369;51.174;6.738;2023-05-24T13:18:19;26.73;;;24.33;;
48588;SDS011;34369;51.174;6.738;2023-05-24T13:20:53;25.80;;;23.67;;
48588;SDS011;34369;51.174;6.738;2023-05-24T13:23:33;26.38;;;24.08;;
48588;SDS011;34369;51.174;6.738;2023-05-24T13:26:09;26.58;;;24.48;;
48588;SDS011;34369;51.174;6.738;2023-05-24T13:28:42;26.50;;;24.30;;
48588;SDS011;34369;51.174;6.738;2023-05-24T13:31:15;26.63;;;24.55;;
48588;SDS011;34369;51.174;6.738;2023-05-24T13:33:48;27.02;;;24.83;;
48588;SDS011;34369;51.174;6.738;2023-05-24T13:36:22;26.38;;;24.27;;
48588;SDS011;34369;51.174;6.738;2023-05-24T13:38:56;26.45;;;24.25;;
48588;SDS011;34369;51.174;6.738;2023-05-24T13:41:31;27.10;;;24.80;;
48588;SDS011;34369;51.174;6.738;2023-05-24T13:44:04;26.42;;;24.02;;
48588;SDS011;34369;51.174;6.738;2023-05-24T13:46:37;26.38;;;24.08;;
48588;SDS011;34369;51.174;6.738;2023-05-24T13:49:12;27.90;;;25.45;;
48588;SDS011;34369;51.174;6.738;2023-05-24T13:51:46;27.70;;;25.38;;
48588;SDS011;34369;51.174;6.738;2023-05-24T13:54:20;27.30;;;25.05;;
48588;SDS011;34369;51.174;6.738;2023-05-24T13:56:54;27.42;;;25.10;;
48588;SDS011;34369;51.174;6.738;2023-05-24T13:59:27;27.25;;;24.80;;
48588;SDS011;34369;51.174;6.738;2023-05-24T14:01:59;27.38;;;25.25;;
48588;SDS011;34369;51.174;6.738;2023-05-24T14:04:31;27.42;;;25.20;;
48588;SDS011;34369;51.174;6.738;2023-05-24T14:07:04;27.30;;;25.20;;
48588;SDS011;34369;51.174;6.738;2023-05-24T14:09:38;26.85;;;24.50;;
48588;SDS011;34369;51.174;6.738;2023-05-24T14:12:17;27.52;;;25.23;;
48588;SDS011;34369;51.174;6.738;2023-05-24T14:14:51;29.50;;;27.00;;
48588;SDS011;34369;51.174;6.738;2023-05-24T14:17:24;27.20;;;25.00;;
48588;SDS011;34369;51.174;6.738;2023-05-24T14:20:05;29.00;;;26.33;;
48588;SDS011;34369;51.174;6.738;2023-05-24T14:22:43;27.02;;;24.92;;
48588;SDS011;34369;51.174;6.738;2023-05-24T14:25:16;28.23;;;26.13;;
48588;SDS011;34369;51.174;6.738;2023-05-24T14:27:50;28.60;;;26.40;;
48588;SDS011;34369;51.174;6.738;2023-05-24T14:30:30;28.15;;;25.67;;
48588;SDS011;34369;51.174;6.738;2023-05-24T14:33:08;28.58;;;26.05;;
48588;SDS011;34369;51.174;6.738;2023-05-24T14:35:43;27.50;;;25.27;;
48588;SDS011;34369;51.174;6.738;2023-05-24T14:38:16;27.40;;;25.30;;
48588;SDS011;34369;51.174;6.738;2023-05-24T14:40:50;26.55;;;24.50;;
48588;SDS011;34369;51.174;6.738;2023-05-24T14:43:27;26.05;;;24.13;;
48588;SDS011;34369;51.174;6.738;2023-05-24T14:46:00;25.98;;;23.88;;
48588;SDS011;34369;51.174;6.738;2023-05-24T14:48:33;27.58;;;25.30;;
48588;SDS011;34369;51.174;6.738;2023-05-24T14:51:10;27.80;;;25.23;;
48588;SDS011;34369;51.174;6.738;2023-05-24T14:53:43;26.63;;;24.50;;
48588;SDS011;34369;51.174;6.738;2023-05-24T14:56:16;25.92;;;23.95;;
48588;SDS011;34369;51.174;6.738;2023-05-24T14:58:52;26.50;;;24.30;;
48588;SDS011;34369;51.174;6.738;2023-05-24T15:01:26;27.13;;;24.83;;
48588;SDS011;34369;51.174;6.738;2023-05-24T15:04:00;27.15;;;24.95;;
48588;SDS011;34369;51.174;6.738;2023-05-24T15:06:33;26.80;;;24.70;;
48588;SDS011;34369;51.174;6.738;2023-05-24T15:09:07;26.33;;;24.20;;
48588;SDS011;34369;51.174;6.738;2023-05-24T15:11:41;26.48;;;24.38;;
48588;SDS011;34369;51.174;6.738;2023-05-24T15:14:16;26.23;;;24.10;;
48588;SDS011;34369;51.174;6.738;2023-05-24T15:16:49;26.35;;;24.35;;
48588;SDS011;34369;51.174;6.738;2023-05-24T15:19:22;25.55;;;23.65;;
48588;SDS011;34369;51.174;6.738;2023-05-24T15:21:55;26.85;;;24.65;;